sensor_id;sensor_type;location;lat;lon;timestamp;P1;durP1;ratioP1;P2;durP2;ratioP2
1178;SDS011;578;48.408;10.004;2022-12-10T00:00:34;40.03;;;20.80;;
1178;SDS011;578;48.408;10.004;2022-12-10T00:03:01;41.95;;;21.27;;
1178;SDS011;578;48.408;10.004;2022-12-10T00:05:28;45.22;;;21.17;;
1178;SDS011;578;48.408;10.004;2022-12-10T00:07:56;44.50;;;19.58;;
1178;SDS011;578;48.408;10.004;2022-12-10T00:10:22;46.53;;;20.35;;
1178;SDS011;578;48.408;10.004;2022-12-10T00:12:49;35.45;;;17.40;;
1178;SDS011;578;48.408;10.004;2022-12-10T00:15:16;46.40;;;20.83;;
1178;SDS011;578;48.408;10.004;2022-12-10T00:17:43;36.22;;;20.52;;
1178;SDS011;578;48.408;10.004;2022-12-10T00:20:10;42.65;;;21.58;;
1178;SDS011;578;48.408;10.004;2022-12-10T00:22:37;39.15;;;18.13;;
1178;SDS011;578;48.408;10.004;2022-12-10T00:25:05;54.47;;;21.30;;
1178;SDS011;578;48.408;10.004;2022-12-10T00:27:32;49.63;;;20.30;;
1178;SDS011;578;48.408;10.004;2022-12-10T00:29:59;38.97;;;18.20;;
1178;SDS011;578;48.408;10.004;2022-12-10T00:32:26;37.00;;;18.73;;
1178;SDS011;578;48.408;10.004;2022-12-10T00:34:52;34.15;;;18.10;;
1178;SDS011;578;48.408;10.004;2022-12-10T00:37:19;44.55;;;19.13;;
1178;SDS011;578;48.408;10.004;2022-12-10T00:39:46;39.55;;;21.10;;
1178;SDS011;578;48.408;10.004;2022-12-10T00:42:14;40.92;;;20.38;;
1178;SDS011;578;48.408;10.004;2022-12-10T00:44:41;38.55;;;19.63;;
1178;SDS011;578;48.408;10.004;2022-12-10T00:47:07;36.13;;;19.55;;
1178;SDS011;578;48.408;10.004;2022-12-10T00:49:34;36.95;;;19.17;;
1178;SDS011;578;48.408;10.004;2022-12-10T00:52:01;35.40;;;18.90;;
1178;SDS011;578;48.408;10.004;2022-12-10T00:54:27;38.10;;;18.45;;
1178;SDS011;578;48.408;10.004;2022-12-10T00:56:54;39.40;;;20.05;;
1178;SDS011;578;48.408;10.004;2022-12-10T00:59:22;41.15;;;20.58;;
1178;SDS011;578;48.408;10.004;2022-12-10T01:01:49;29.27;;;14.95;;
1178;SDS011;578;48.408;10.004;2022-12-10T01:04:16;42.28;;;20.05;;
1178;SDS011;578;48.408;10.004;2022-12-10T01:06:44;32.10;;;19.02;;
1178;SDS011;578;48.408;10.004;2022-12-10T01:09:13;38.10;;;18.98;;
1178;SDS011;578;48.408;10.004;2022-12-10T01:11:43;36.30;;;17.95;;
1178;SDS011;578;48.408;10.004;2022-12-10T01:14:12;30.88;;;18.65;;
1178;SDS011;578;48.408;10.004;2022-12-10T01:16:43;34.83;;;18.25;;
1178;SDS011;578;48.408;10.004;2022-12-10T01:19:10;38.67;;;20.25;;
1178;SDS011;578;48.408;10.004;2022-12-10T01:21:37;33.33;;;17.98;;
1178;SDS011;578;48.408;10.004;2022-12-10T01:24:05;33.70;;;18.08;;
1178;SDS011;578;48.408;10.004;2022-12-10T01:26:33;36.33;;;19.05;;
1178;SDS011;578;48.408;10.004;2022-12-10T01:29:01;36.15;;;20.35;;
1178;SDS011;578;48.408;10.004;2022-12-10T01:31:30;33.72;;;18.27;;
1178;SDS011;578;48.408;10.004;2022-12-10T01:33:59;34.42;;;19.45;;
1178;SDS011;578;48.408;10.004;2022-12-10T01:36:27;33.00;;;19.23;;
1178;SDS011;578;48.408;10.004;2022-12-10T01:38:56;35.45;;;17.90;;
1178;SDS011;578;48.408;10.004;2022-12-10T01:41:24;34.53;;;18.20;;
1178;SDS011;578;48.408;10.004;2022-12-10T01:43:54;32.70;;;18.10;;
1178;SDS011;578;48.408;10.004;2022-12-10T01:46:22;39.53;;;19.13;;
1178;SDS011;578;48.408;10.004;2022-12-10T01:48:50;40.58;;;18.42;;
1178;SDS011;578;48.408;10.004;2022-12-10T01:51:19;32.60;;;17.05;;
1178;SDS011;578;48.408;10.004;2022-12-10T01:53:46;32.55;;;17.90;;
1178;SDS011;578;48.408;10.004;2022-12-10T01:56:15;33.45;;;18.75;;
1178;SDS011;578;48.408;10.004;2022-12-10T01:58:43;32.92;;;18.63;;
1178;SDS011;578;48.408;10.004;2022-12-10T02:01:11;30.17;;;17.65;;
1178;SDS011;578;48.408;10.004;2022-12-10T02:03:43;35.70;;;18.58;;
1178;SDS011;578;48.408;10.004;2022-12-10T02:06:23;35.78;;;18.35;;
1178;SDS011;578;48.408;10.004;2022-12-10T02:09:00;32.60;;;17.80;;
1178;SDS011;578;48.408;10.004;2022-12-10T02:11:36;35.55;;;18.80;;
1178;SDS011;578;48.408;10.004;2022-12-10T02:14:08;29.17;;;17.83;;
1178;SDS011;578;48.408;10.004;2022-12-10T02:16:41;29.63;;;17.77;;
1178;SDS011;578;48.408;10.004;2022-12-10T02:19:14;33.47;;;18.73;;
1178;SDS011;578;48.408;10.004;2022-12-10T02:21:47;37.90;;;19.55;;
1178;SDS011;578;48.408;10.004;2022-12-10T02:24:18;33.42;;;18.42;;
1178;SDS011;578;48.408;10.004;2022-12-10T02:26:51;32.80;;;16.98;;
1178;SDS011;578;48.408;10.004;2022-12-10T02:29:27;27.42;;;16.77;;
1178;SDS011;578;48.408;10.004;2022-12-10T02:31:56;30.50;;;16.80;;
1178;SDS011;578;48.408;10.004;2022-12-10T02:34:29;36.35;;;17.83;;
1178;SDS011;578;48.408;10.004;2022-12-10T02:37:00;32.60;;;18.38;;
1178;SDS011;578;48.408;10.004;2022-12-10T02:39:32;39.85;;;21.17;;
1178;SDS011;578;48.408;10.004;2022-12-10T02:42:02;33.45;;;19.88;;
1178;SDS011;578;48.408;10.004;2022-12-10T02:44:33;34.45;;;18.02;;
1178;SDS011;578;48.408;10.004;2022-12-10T02:47:03;33.47;;;17.85;;
1178;SDS011;578;48.408;10.004;2022-12-10T02:49:31;31.45;;;17.10;;
1178;SDS011;578;48.408;10.004;2022-12-10T02:51:59;32.97;;;17.80;;
1178;SDS011;578;48.408;10.004;2022-12-10T02:54:39;36.33;;;19.60;;
1178;SDS011;578;48.408;10.004;2022-12-10T02:57:13;34.05;;;19.85;;
1178;SDS011;578;48.408;10.004;2022-12-10T02:59:49;37.00;;;18.00;;
1178;SDS011;578;48.408;10.004;2022-12-10T03:02:29;33.38;;;18.42;;
1178;SDS011;578;48.408;10.004;2022-12-10T03:05:07;30.92;;;16.30;;
1178;SDS011;578;48.408;10.004;2022-12-10T03:07:41;38.67;;;19.42;;
1178;SDS011;578;48.408;10.004;2022-12-10T03:10:14;35.70;;;17.85;;
1178;SDS011;578;48.408;10.004;2022-12-10T03:12:47;35.17;;;18.17;;
1178;SDS011;578;48.408;10.004;2022-12-10T03:15:18;26.92;;;16.25;;
1178;SDS011;578;48.408;10.004;2022-12-10T03:17:47;33.45;;;17.42;;
1178;SDS011;578;48.408;10.004;2022-12-10T03:20:16;27.38;;;16.08;;
1178;SDS011;578;48.408;10.004;2022-12-10T03:22:44;30.80;;;19.08;;
1178;SDS011;578;48.408;10.004;2022-12-10T03:25:13;33.15;;;17.92;;
1178;SDS011;578;48.408;10.004;2022-12-10T03:27:43;33.58;;;19.08;;
1178;SDS011;578;48.408;10.004;2022-12-10T03:30:12;32.17;;;17.65;;
1178;SDS011;578;48.408;10.004;2022-12-10T03:32:40;37.30;;;17.23;;
1178;SDS011;578;48.408;10.004;2022-12-10T03:35:08;32.83;;;19.10;;
1178;SDS011;578;48.408;10.004;2022-12-10T03:37:35;33.28;;;18.15;;
1178;SDS011;578;48.408;10.004;2022-12-10T03:40:03;33.95;;;18.65;;
1178;SDS011;578;48.408;10.004;2022-12-10T03:42:31;31.08;;;18.17;;
1178;SDS011;578;48.408;10.004;2022-12-10T03:45:00;29.35;;;18.15;;
1178;SDS011;578;48.408;10.004;2022-12-10T03:47:27;35.28;;;17.83;;
1178;SDS011;578;48.408;10.004;2022-12-10T03:49:55;35.80;;;19.02;;
1178;SDS011;578;48.408;10.004;2022-12-10T03:52:22;28.10;;;17.02;;
1178;SDS011;578;48.408;10.004;2022-12-10T03:54:49;29.52;;;15.60;;
1178;SDS011;578;48.408;10.004;2022-12-10T03:57:15;26.55;;;16.65;;
1178;SDS011;578;48.408;10.004;2022-12-10T03:59:42;27.08;;;14.98;;
1178;SDS011;578;48.408;10.004;2022-12-10T04:02:09;34.08;;;18.45;;
1178;SDS011;578;48.408;10.004;2022-12-10T04:04:36;31.83;;;17.65;;
1178;SDS011;578;48.408;10.004;2022-12-10T04:07:04;28.05;;;16.35;;
1178;SDS011;578;48.408;10.004;2022-12-10T04:09:31;30.92;;;17.10;;
1178;SDS011;578;48.408;10.004;2022-12-10T04:11:58;29.27;;;16.27;;
1178;SDS011;578;48.408;10.004;2022-12-10T04:14:27;35.70;;;18.00;;
1178;SDS011;578;48.408;10.004;2022-12-10T04:17:12;36.15;;;18.60;;
1178;SDS011;578;48.408;10.004;2022-12-10T04:19:39;29.25;;;16.70;;
1178;SDS011;578;48.408;10.004;2022-12-10T04:22:08;33.28;;;18.88;;
1178;SDS011;578;48.408;10.004;2022-12-10T04:24:53;28.42;;;17.58;;
1178;SDS011;578;48.408;10.004;2022-12-10T04:27:48;34.25;;;17.25;;
1178;SDS011;578;48.408;10.004;2022-12-10T04:30:15;26.02;;;16.95;;
1178;SDS011;578;48.408;10.004;2022-12-10T04:32:42;27.60;;;15.63;;
1178;SDS011;578;48.408;10.004;2022-12-10T04:35:09;30.35;;;18.42;;
1178;SDS011;578;48.408;10.004;2022-12-10T04:37:37;27.35;;;16.38;;
1178;SDS011;578;48.408;10.004;2022-12-10T04:40:05;30.75;;;17.40;;
1178;SDS011;578;48.408;10.004;2022-12-10T04:42:32;34.38;;;17.33;;
1178;SDS011;578;48.408;10.004;2022-12-10T04:44:59;33.55;;;18.90;;
1178;SDS011;578;48.408;10.004;2022-12-10T04:47:26;29.73;;;17.40;;
1178;SDS011;578;48.408;10.004;2022-12-10T04:49:53;36.63;;;17.27;;
1178;SDS011;578;48.408;10.004;2022-12-10T04:52:19;31.52;;;18.40;;
1178;SDS011;578;48.408;10.004;2022-12-10T04:54:47;30.63;;;19.05;;
1178;SDS011;578;48.408;10.004;2022-12-10T04:57:14;28.05;;;16.27;;
1178;SDS011;578;48.408;10.004;2022-12-10T04:59:41;33.58;;;18.20;;
1178;SDS011;578;48.408;10.004;2022-12-10T05:02:08;23.15;;;15.80;;
1178;SDS011;578;48.408;10.004;2022-12-10T05:04:35;29.70;;;16.92;;
1178;SDS011;578;48.408;10.004;2022-12-10T05:07:02;32.58;;;18.08;;
1178;SDS011;578;48.408;10.004;2022-12-10T05:09:29;33.15;;;16.58;;
1178;SDS011;578;48.408;10.004;2022-12-10T05:11:57;29.05;;;15.93;;
1178;SDS011;578;48.408;10.004;2022-12-10T05:14:24;33.60;;;19.33;;
1178;SDS011;578;48.408;10.004;2022-12-10T05:16:51;26.60;;;16.38;;
1178;SDS011;578;48.408;10.004;2022-12-10T05:19:18;35.80;;;19.65;;
1178;SDS011;578;48.408;10.004;2022-12-10T05:21:46;24.98;;;15.95;;
1178;SDS011;578;48.408;10.004;2022-12-10T05:24:31;33.63;;;16.17;;
1178;SDS011;578;48.408;10.004;2022-12-10T05:26:59;26.38;;;16.52;;
1178;SDS011;578;48.408;10.004;2022-12-10T05:29:26;29.40;;;17.65;;
1178;SDS011;578;48.408;10.004;2022-12-10T05:31:53;30.63;;;17.67;;
1178;SDS011;578;48.408;10.004;2022-12-10T05:34:20;24.08;;;15.63;;
1178;SDS011;578;48.408;10.004;2022-12-10T05:36:47;25.77;;;16.40;;
1178;SDS011;578;48.408;10.004;2022-12-10T05:39:13;28.60;;;16.08;;
1178;SDS011;578;48.408;10.004;2022-12-10T05:41:40;28.80;;;16.85;;
1178;SDS011;578;48.408;10.004;2022-12-10T05:44:10;26.63;;;16.67;;
1178;SDS011;578;48.408;10.004;2022-12-10T05:46:37;31.73;;;17.15;;
1178;SDS011;578;48.408;10.004;2022-12-10T05:49:04;28.95;;;17.48;;
1178;SDS011;578;48.408;10.004;2022-12-10T05:51:33;26.75;;;16.60;;
1178;SDS011;578;48.408;10.004;2022-12-10T05:54:01;27.73;;;16.52;;
1178;SDS011;578;48.408;10.004;2022-12-10T05:56:30;27.50;;;15.82;;
1178;SDS011;578;48.408;10.004;2022-12-10T05:58:58;27.85;;;15.93;;
1178;SDS011;578;48.408;10.004;2022-12-10T06:01:27;27.63;;;16.23;;
1178;SDS011;578;48.408;10.004;2022-12-10T06:03:56;27.27;;;15.43;;
1178;SDS011;578;48.408;10.004;2022-12-10T06:06:24;28.70;;;17.35;;
1178;SDS011;578;48.408;10.004;2022-12-10T06:08:52;28.73;;;15.75;;
1178;SDS011;578;48.408;10.004;2022-12-10T06:11:20;30.15;;;16.60;;
1178;SDS011;578;48.408;10.004;2022-12-10T06:13:47;29.23;;;17.35;;
1178;SDS011;578;48.408;10.004;2022-12-10T06:16:14;29.00;;;16.67;;
1178;SDS011;578;48.408;10.004;2022-12-10T06:18:42;25.67;;;16.05;;
1178;SDS011;578;48.408;10.004;2022-12-10T06:21:11;26.33;;;15.55;;
1178;SDS011;578;48.408;10.004;2022-12-10T06:23:39;24.75;;;16.50;;
1178;SDS011;578;48.408;10.004;2022-12-10T06:26:07;24.88;;;14.68;;
1178;SDS011;578;48.408;10.004;2022-12-10T06:28:34;32.05;;;16.05;;
1178;SDS011;578;48.408;10.004;2022-12-10T06:31:01;26.52;;;17.33;;
1178;SDS011;578;48.408;10.004;2022-12-10T06:33:27;23.80;;;15.02;;
1178;SDS011;578;48.408;10.004;2022-12-10T06:35:56;27.58;;;17.75;;
1178;SDS011;578;48.408;10.004;2022-12-10T06:38:22;22.23;;;15.05;;
1178;SDS011;578;48.408;10.004;2022-12-10T06:40:49;25.05;;;16.52;;
1178;SDS011;578;48.408;10.004;2022-12-10T06:43:17;30.55;;;16.30;;
1178;SDS011;578;48.408;10.004;2022-12-10T06:45:44;28.17;;;17.55;;
1178;SDS011;578;48.408;10.004;2022-12-10T06:48:11;30.17;;;16.67;;
1178;SDS011;578;48.408;10.004;2022-12-10T06:50:37;28.20;;;16.08;;
1178;SDS011;578;48.408;10.004;2022-12-10T06:53:05;36.10;;;17.63;;
1178;SDS011;578;48.408;10.004;2022-12-10T06:55:32;26.95;;;16.80;;
1178;SDS011;578;48.408;10.004;2022-12-10T06:58:01;33.97;;;17.88;;
1178;SDS011;578;48.408;10.004;2022-12-10T07:00:28;29.45;;;15.93;;
1178;SDS011;578;48.408;10.004;2022-12-10T07:02:55;25.95;;;15.32;;
1178;SDS011;578;48.408;10.004;2022-12-10T07:05:21;26.23;;;15.90;;
1178;SDS011;578;48.408;10.004;2022-12-10T07:07:48;24.33;;;15.82;;
1178;SDS011;578;48.408;10.004;2022-12-10T07:10:16;34.47;;;18.63;;
1178;SDS011;578;48.408;10.004;2022-12-10T07:12:43;30.70;;;16.40;;
1178;SDS011;578;48.408;10.004;2022-12-10T07:15:10;38.35;;;19.17;;
1178;SDS011;578;48.408;10.004;2022-12-10T07:17:36;28.08;;;16.83;;
1178;SDS011;578;48.408;10.004;2022-12-10T07:20:04;28.83;;;17.90;;
1178;SDS011;578;48.408;10.004;2022-12-10T07:22:31;33.67;;;18.25;;
1178;SDS011;578;48.408;10.004;2022-12-10T07:24:58;26.80;;;16.90;;
1178;SDS011;578;48.408;10.004;2022-12-10T07:27:26;29.20;;;17.58;;
1178;SDS011;578;48.408;10.004;2022-12-10T07:29:53;30.90;;;19.15;;
1178;SDS011;578;48.408;10.004;2022-12-10T07:32:19;27.45;;;17.60;;
1178;SDS011;578;48.408;10.004;2022-12-10T07:34:46;26.75;;;15.88;;
1178;SDS011;578;48.408;10.004;2022-12-10T07:37:13;32.17;;;17.58;;
1178;SDS011;578;48.408;10.004;2022-12-10T07:39:40;31.42;;;18.58;;
1178;SDS011;578;48.408;10.004;2022-12-10T07:42:07;34.72;;;16.40;;
1178;SDS011;578;48.408;10.004;2022-12-10T07:44:35;32.35;;;17.48;;
1178;SDS011;578;48.408;10.004;2022-12-10T07:47:02;35.17;;;16.83;;
1178;SDS011;578;48.408;10.004;2022-12-10T07:49:29;28.63;;;16.00;;
1178;SDS011;578;48.408;10.004;2022-12-10T07:51:56;32.33;;;16.35;;
1178;SDS011;578;48.408;10.004;2022-12-10T07:54:23;27.70;;;15.70;;
1178;SDS011;578;48.408;10.004;2022-12-10T07:56:49;28.92;;;15.52;;
1178;SDS011;578;48.408;10.004;2022-12-10T07:59:16;32.22;;;16.55;;
1178;SDS011;578;48.408;10.004;2022-12-10T08:01:44;31.38;;;16.50;;
1178;SDS011;578;48.408;10.004;2022-12-10T08:04:11;28.13;;;16.60;;
1178;SDS011;578;48.408;10.004;2022-12-10T08:06:38;26.88;;;17.17;;
1178;SDS011;578;48.408;10.004;2022-12-10T08:09:05;24.33;;;16.75;;
1178;SDS011;578;48.408;10.004;2022-12-10T08:11:31;25.75;;;16.30;;
1178;SDS011;578;48.408;10.004;2022-12-10T08:13:58;27.80;;;16.50;;
1178;SDS011;578;48.408;10.004;2022-12-10T08:16:26;24.20;;;14.23;;
1178;SDS011;578;48.408;10.004;2022-12-10T08:18:55;24.90;;;15.10;;
1178;SDS011;578;48.408;10.004;2022-12-10T08:21:24;28.05;;;15.07;;
1178;SDS011;578;48.408;10.004;2022-12-10T08:23:53;28.98;;;16.00;;
1178;SDS011;578;48.408;10.004;2022-12-10T08:26:21;31.73;;;16.05;;
1178;SDS011;578;48.408;10.004;2022-12-10T08:28:49;28.05;;;15.60;;
1178;SDS011;578;48.408;10.004;2022-12-10T08:31:18;30.80;;;16.67;;
1178;SDS011;578;48.408;10.004;2022-12-10T08:33:45;28.80;;;14.57;;
1178;SDS011;578;48.408;10.004;2022-12-10T08:36:14;30.30;;;16.88;;
1178;SDS011;578;48.408;10.004;2022-12-10T08:38:42;28.65;;;14.90;;
1178;SDS011;578;48.408;10.004;2022-12-10T08:41:10;27.05;;;14.80;;
1178;SDS011;578;48.408;10.004;2022-12-10T08:43:38;26.92;;;14.27;;
1178;SDS011;578;48.408;10.004;2022-12-10T08:46:05;26.35;;;15.75;;
1178;SDS011;578;48.408;10.004;2022-12-10T08:48:32;28.75;;;14.90;;
1178;SDS011;578;48.408;10.004;2022-12-10T08:51:00;27.17;;;15.45;;
1178;SDS011;578;48.408;10.004;2022-12-10T08:53:28;22.85;;;14.80;;
1178;SDS011;578;48.408;10.004;2022-12-10T08:55:55;23.38;;;14.40;;
1178;SDS011;578;48.408;10.004;2022-12-10T08:58:22;28.05;;;14.90;;
1178;SDS011;578;48.408;10.004;2022-12-10T09:00:49;28.67;;;15.93;;
1178;SDS011;578;48.408;10.004;2022-12-10T09:03:17;23.15;;;14.27;;
1178;SDS011;578;48.408;10.004;2022-12-10T09:05:44;21.38;;;14.27;;
1178;SDS011;578;48.408;10.004;2022-12-10T09:08:11;30.65;;;16.08;;
1178;SDS011;578;48.408;10.004;2022-12-10T09:10:40;22.75;;;14.20;;
1178;SDS011;578;48.408;10.004;2022-12-10T09:13:07;25.00;;;15.10;;
1178;SDS011;578;48.408;10.004;2022-12-10T09:15:34;29.83;;;15.60;;
1178;SDS011;578;48.408;10.004;2022-12-10T09:18:01;23.83;;;13.68;;
1178;SDS011;578;48.408;10.004;2022-12-10T09:20:28;22.17;;;12.80;;
1178;SDS011;578;48.408;10.004;2022-12-10T09:22:54;27.95;;;12.73;;
1178;SDS011;578;48.408;10.004;2022-12-10T09:25:21;25.55;;;14.02;;
1178;SDS011;578;48.408;10.004;2022-12-10T09:27:49;22.38;;;13.30;;
1178;SDS011;578;48.408;10.004;2022-12-10T09:30:16;20.42;;;12.30;;
1178;SDS011;578;48.408;10.004;2022-12-10T09:32:43;21.60;;;12.50;;
1178;SDS011;578;48.408;10.004;2022-12-10T09:35:10;21.63;;;12.73;;
1178;SDS011;578;48.408;10.004;2022-12-10T09:37:37;23.50;;;13.02;;
1178;SDS011;578;48.408;10.004;2022-12-10T09:40:04;19.38;;;12.73;;
1178;SDS011;578;48.408;10.004;2022-12-10T09:42:34;19.73;;;12.23;;
1178;SDS011;578;48.408;10.004;2022-12-10T09:45:13;19.38;;;12.35;;
1178;SDS011;578;48.408;10.004;2022-12-10T09:47:45;23.67;;;13.02;;
1178;SDS011;578;48.408;10.004;2022-12-10T09:50:20;24.10;;;11.48;;
1178;SDS011;578;48.408;10.004;2022-12-10T09:52:52;22.95;;;13.70;;
1178;SDS011;578;48.408;10.004;2022-12-10T09:55:22;18.10;;;11.10;;
1178;SDS011;578;48.408;10.004;2022-12-10T09:57:57;18.50;;;11.27;;
1178;SDS011;578;48.408;10.004;2022-12-10T10:00:29;21.23;;;12.18;;
1178;SDS011;578;48.408;10.004;2022-12-10T10:02:59;17.67;;;11.02;;
1178;SDS011;578;48.408;10.004;2022-12-10T10:05:28;18.50;;;11.70;;
1178;SDS011;578;48.408;10.004;2022-12-10T10:07:56;15.95;;;10.18;;
1178;SDS011;578;48.408;10.004;2022-12-10T10:10:27;17.63;;;11.07;;
1178;SDS011;578;48.408;10.004;2022-12-10T10:12:57;20.80;;;11.98;;
1178;SDS011;578;48.408;10.004;2022-12-10T10:15:30;17.85;;;10.98;;
1178;SDS011;578;48.408;10.004;2022-12-10T10:18:02;18.98;;;10.55;;
1178;SDS011;578;48.408;10.004;2022-12-10T10:20:34;19.88;;;10.90;;
1178;SDS011;578;48.408;10.004;2022-12-10T10:23:01;19.20;;;11.27;;
1178;SDS011;578;48.408;10.004;2022-12-10T10:25:28;21.35;;;12.30;;
1178;SDS011;578;48.408;10.004;2022-12-10T10:27:55;18.33;;;11.23;;
1178;SDS011;578;48.408;10.004;2022-12-10T10:30:22;17.67;;;10.45;;
1178;SDS011;578;48.408;10.004;2022-12-10T10:32:51;17.42;;;10.93;;
1178;SDS011;578;48.408;10.004;2022-12-10T10:35:23;16.23;;;10.15;;
1178;SDS011;578;48.408;10.004;2022-12-10T10:37:52;17.02;;;8.52;;
1178;SDS011;578;48.408;10.004;2022-12-10T10:40:25;15.15;;;10.13;;
1178;SDS011;578;48.408;10.004;2022-12-10T10:42:54;16.98;;;9.45;;
1178;SDS011;578;48.408;10.004;2022-12-10T10:45:33;14.40;;;9.93;;
1178;SDS011;578;48.408;10.004;2022-12-10T10:48:05;17.00;;;10.48;;
1178;SDS011;578;48.408;10.004;2022-12-10T10:50:37;16.35;;;10.27;;
1178;SDS011;578;48.408;10.004;2022-12-10T10:58:50;19.00;;;10.40;;
1178;SDS011;578;48.408;10.004;2022-12-10T11:01:20;14.80;;;10.10;;
1178;SDS011;578;48.408;10.004;2022-12-10T11:03:49;18.45;;;9.95;;
1178;SDS011;578;48.408;10.004;2022-12-10T11:06:20;14.57;;;9.65;;
1178;SDS011;578;48.408;10.004;2022-12-10T11:08:47;15.15;;;9.90;;
1178;SDS011;578;48.408;10.004;2022-12-10T11:11:17;14.43;;;9.35;;
1178;SDS011;578;48.408;10.004;2022-12-10T11:13:46;17.67;;;9.13;;
1178;SDS011;578;48.408;10.004;2022-12-10T11:16:17;13.90;;;9.05;;
1178;SDS011;578;48.408;10.004;2022-12-10T11:18:53;18.15;;;9.90;;
1178;SDS011;578;48.408;10.004;2022-12-10T11:21:27;14.82;;;9.05;;
1178;SDS011;578;48.408;10.004;2022-12-10T11:23:55;13.65;;;9.10;;
1178;SDS011;578;48.408;10.004;2022-12-10T11:26:32;12.32;;;8.70;;
1178;SDS011;578;48.408;10.004;2022-12-10T11:32:07;14.30;;;9.45;;
1178;SDS011;578;48.408;10.004;2022-12-10T11:34:50;13.07;;;8.20;;
1178;SDS011;578;48.408;10.004;2022-12-10T11:37:28;15.25;;;7.93;;
1178;SDS011;578;48.408;10.004;2022-12-10T11:42:59;11.13;;;6.90;;
1178;SDS011;578;48.408;10.004;2022-12-10T11:45:43;10.48;;;6.93;;
1178;SDS011;578;48.408;10.004;2022-12-10T11:48:25;11.82;;;7.95;;
1178;SDS011;578;48.408;10.004;2022-12-10T11:51:00;13.30;;;8.57;;
1178;SDS011;578;48.408;10.004;2022-12-10T11:53:35;14.18;;;8.80;;
1178;SDS011;578;48.408;10.004;2022-12-10T11:56:13;13.80;;;8.43;;
1178;SDS011;578;48.408;10.004;2022-12-10T11:58:51;18.50;;;9.52;;
1178;SDS011;578;48.408;10.004;2022-12-10T12:01:28;18.63;;;10.02;;
1178;SDS011;578;48.408;10.004;2022-12-10T12:04:06;17.55;;;9.90;;
1178;SDS011;578;48.408;10.004;2022-12-10T12:06:57;15.23;;;9.90;;
1178;SDS011;578;48.408;10.004;2022-12-10T12:09:47;14.73;;;9.15;;
1178;SDS011;578;48.408;10.004;2022-12-10T12:12:26;16.27;;;10.10;;
1178;SDS011;578;48.408;10.004;2022-12-10T12:15:02;19.25;;;11.30;;
1178;SDS011;578;48.408;10.004;2022-12-10T12:17:35;15.85;;;11.38;;
1178;SDS011;578;48.408;10.004;2022-12-10T12:20:11;19.65;;;11.93;;
1178;SDS011;578;48.408;10.004;2022-12-10T12:22:45;18.15;;;11.95;;
1178;SDS011;578;48.408;10.004;2022-12-10T12:25:16;14.98;;;11.15;;
1178;SDS011;578;48.408;10.004;2022-12-10T12:27:50;23.45;;;13.25;;
1178;SDS011;578;48.408;10.004;2022-12-10T12:30:20;20.08;;;13.40;;
1178;SDS011;578;48.408;10.004;2022-12-10T12:32:50;23.60;;;12.52;;
1178;SDS011;578;48.408;10.004;2022-12-10T12:35:21;22.52;;;14.65;;
1178;SDS011;578;48.408;10.004;2022-12-10T12:37:55;20.77;;;14.40;;
1178;SDS011;578;48.408;10.004;2022-12-10T12:40:27;24.25;;;14.30;;
1178;SDS011;578;48.408;10.004;2022-12-10T12:42:56;27.20;;;15.38;;
1178;SDS011;578;48.408;10.004;2022-12-10T12:45:30;21.70;;;14.15;;
1178;SDS011;578;48.408;10.004;2022-12-10T12:48:01;26.35;;;14.25;;
1178;SDS011;578;48.408;10.004;2022-12-10T12:50:39;27.63;;;13.80;;
1178;SDS011;578;48.408;10.004;2022-12-10T12:53:11;19.10;;;12.35;;
1178;SDS011;578;48.408;10.004;2022-12-10T12:55:41;22.60;;;13.27;;
1178;SDS011;578;48.408;10.004;2022-12-10T12:58:17;18.30;;;11.85;;
1178;SDS011;578;48.408;10.004;2022-12-10T13:00:50;20.73;;;13.68;;
1178;SDS011;578;48.408;10.004;2022-12-10T13:03:25;21.33;;;13.65;;
1178;SDS011;578;48.408;10.004;2022-12-10T13:06:11;20.98;;;13.30;;
1178;SDS011;578;48.408;10.004;2022-12-10T13:08:44;18.83;;;12.23;;
1178;SDS011;578;48.408;10.004;2022-12-10T13:11:32;17.13;;;13.13;;
1178;SDS011;578;48.408;10.004;2022-12-10T13:14:11;20.67;;;12.52;;
1178;SDS011;578;48.408;10.004;2022-12-10T13:16:46;21.52;;;13.70;;
1178;SDS011;578;48.408;10.004;2022-12-10T13:19:16;18.80;;;11.45;;
1178;SDS011;578;48.408;10.004;2022-12-10T13:21:58;20.00;;;11.93;;
1178;SDS011;578;48.408;10.004;2022-12-10T13:24:45;18.05;;;12.63;;
1178;SDS011;578;48.408;10.004;2022-12-10T13:27:28;17.92;;;12.38;;
1178;SDS011;578;48.408;10.004;2022-12-10T13:29:59;18.77;;;12.40;;
1178;SDS011;578;48.408;10.004;2022-12-10T13:32:42;22.00;;;12.95;;
1178;SDS011;578;48.408;10.004;2022-12-10T13:35:16;18.63;;;11.50;;
1178;SDS011;578;48.408;10.004;2022-12-10T13:37:56;21.13;;;13.15;;
1178;SDS011;578;48.408;10.004;2022-12-10T13:40:37;20.88;;;12.70;;
1178;SDS011;578;48.408;10.004;2022-12-10T13:43:26;20.63;;;13.20;;
1178;SDS011;578;48.408;10.004;2022-12-10T13:46:25;20.30;;;12.18;;
1178;SDS011;578;48.408;10.004;2022-12-10T13:48:56;22.05;;;12.35;;
1178;SDS011;578;48.408;10.004;2022-12-10T14:00:17;21.27;;;12.88;;
1178;SDS011;578;48.408;10.004;2022-12-10T14:05:50;27.83;;;13.75;;
1178;SDS011;578;48.408;10.004;2022-12-10T14:08:32;19.92;;;12.10;;
1178;SDS011;578;48.408;10.004;2022-12-10T14:11:02;19.50;;;12.35;;
1178;SDS011;578;48.408;10.004;2022-12-10T14:13:34;20.40;;;11.05;;
1178;SDS011;578;48.408;10.004;2022-12-10T14:16:10;20.38;;;13.10;;
1178;SDS011;578;48.408;10.004;2022-12-10T14:18:41;21.73;;;12.38;;
1178;SDS011;578;48.408;10.004;2022-12-10T14:21:10;23.40;;;13.63;;
1178;SDS011;578;48.408;10.004;2022-12-10T14:23:43;19.20;;;12.98;;
1178;SDS011;578;48.408;10.004;2022-12-10T14:26:12;17.50;;;12.10;;
1178;SDS011;578;48.408;10.004;2022-12-10T14:28:44;16.90;;;11.85;;
1178;SDS011;578;48.408;10.004;2022-12-10T14:31:13;22.73;;;12.88;;
1178;SDS011;578;48.408;10.004;2022-12-10T14:33:43;22.30;;;13.30;;
1178;SDS011;578;48.408;10.004;2022-12-10T14:36:14;21.73;;;11.48;;
1178;SDS011;578;48.408;10.004;2022-12-10T14:38:43;21.30;;;12.73;;
1178;SDS011;578;48.408;10.004;2022-12-10T14:41:13;24.25;;;12.75;;
1178;SDS011;578;48.408;10.004;2022-12-10T14:43:46;22.08;;;13.23;;
1178;SDS011;578;48.408;10.004;2022-12-10T14:46:14;22.52;;;12.15;;
1178;SDS011;578;48.408;10.004;2022-12-10T14:48:46;20.75;;;14.57;;
1178;SDS011;578;48.408;10.004;2022-12-10T14:51:16;21.67;;;13.57;;
1178;SDS011;578;48.408;10.004;2022-12-10T14:53:45;24.05;;;14.30;;
1178;SDS011;578;48.408;10.004;2022-12-10T14:56:14;23.02;;;15.55;;
1178;SDS011;578;48.408;10.004;2022-12-10T14:58:47;20.55;;;13.18;;
1178;SDS011;578;48.408;10.004;2022-12-10T15:01:19;26.52;;;14.30;;
1178;SDS011;578;48.408;10.004;2022-12-10T15:03:51;21.65;;;13.63;;
1178;SDS011;578;48.408;10.004;2022-12-10T15:06:19;23.38;;;15.05;;
1178;SDS011;578;48.408;10.004;2022-12-10T15:08:46;21.35;;;13.73;;
1178;SDS011;578;48.408;10.004;2022-12-10T15:11:14;24.58;;;13.85;;
1178;SDS011;578;48.408;10.004;2022-12-10T15:13:44;24.20;;;13.23;;
1178;SDS011;578;48.408;10.004;2022-12-10T15:16:17;22.70;;;14.27;;
1178;SDS011;578;48.408;10.004;2022-12-10T15:18:44;21.48;;;13.80;;
1178;SDS011;578;48.408;10.004;2022-12-10T15:21:12;27.45;;;15.85;;
1178;SDS011;578;48.408;10.004;2022-12-10T15:23:42;23.75;;;15.63;;
1178;SDS011;578;48.408;10.004;2022-12-10T15:26:19;22.35;;;15.48;;
1178;SDS011;578;48.408;10.004;2022-12-10T15:28:48;28.95;;;15.40;;